sensor_id;sensor_type;location;lat;lon;timestamp;P1;durP1;ratioP1;P2;durP2;ratioP2
10059;SDS011;5069;49.306;8.636;2023-03-08T00:02:10;9.70;;;6.60;;
10059;SDS011;5069;49.306;8.636;2023-03-08T00:05:11;11.77;;;7.37;;
10059;SDS011;5069;49.306;8.636;2023-03-08T00:08:13;9.57;;;6.80;;
10059;SDS011;5069;49.306;8.636;2023-03-08T00:11:14;8.87;;;6.63;;
10059;SDS011;5069;49.306;8.636;2023-03-08T00:14:16;9.10;;;6.27;;
10059;SDS011;5069;49.306;8.636;2023-03-08T00:17:18;9.40;;;6.43;;
10059;SDS011;5069;49.306;8.636;2023-03-08T00:20:20;10.90;;;6.80;;
10059;SDS011;5069;49.306;8.636;2023-03-08T00:23:21;11.60;;;6.70;;
10059;SDS011;5069;49.306;8.636;2023-03-08T00:26:23;9.33;;;7.23;;
10059;SDS011;5069;49.306;8.636;2023-03-08T00:29:25;11.77;;;7.43;;
10059;SDS011;5069;49.306;8.636;2023-03-08T00:32:30;10.33;;;6.43;;
10059;SDS011;5069;49.306;8.636;2023-03-08T00:35:32;10.30;;;6.63;;
10059;SDS011;5069;49.306;8.636;2023-03-08T00:38:34;9.83;;;6.80;;
10059;SDS011;5069;49.306;8.636;2023-03-08T00:41:36;11.70;;;7.00;;
10059;SDS011;5069;49.306;8.636;2023-03-08T00:44:38;10.50;;;6.97;;
10059;SDS011;5069;49.306;8.636;2023-03-08T00:47:39;10.63;;;6.73;;
10059;SDS011;5069;49.306;8.636;2023-03-08T00:50:42;10.10;;;7.23;;
10059;SDS011;5069;49.306;8.636;2023-03-08T00:53:44;8.87;;;6.93;;
10059;SDS011;5069;49.306;8.636;2023-03-08T00:56:46;11.00;;;7.17;;
10059;SDS011;5069;49.306;8.636;2023-03-08T00:59:47;12.50;;;6.83;;
10059;SDS011;5069;49.306;8.636;2023-03-08T01:02:48;9.40;;;6.43;;
10059;SDS011;5069;49.306;8.636;2023-03-08T01:05:51;10.93;;;6.50;;
10059;SDS011;5069;49.306;8.636;2023-03-08T01:08:54;11.20;;;6.80;;
10059;SDS011;5069;49.306;8.636;2023-03-08T01:11:55;11.07;;;6.77;;
10059;SDS011;5069;49.306;8.636;2023-03-08T01:14:56;11.10;;;7.23;;
10059;SDS011;5069;49.306;8.636;2023-03-08T01:17:58;14.10;;;7.60;;
10059;SDS011;5069;49.306;8.636;2023-03-08T01:21:01;9.80;;;6.53;;
10059;SDS011;5069;49.306;8.636;2023-03-08T01:24:04;11.13;;;6.93;;
10059;SDS011;5069;49.306;8.636;2023-03-08T01:27:06;10.97;;;6.97;;
10059;SDS011;5069;49.306;8.636;2023-03-08T01:30:07;10.80;;;7.10;;
10059;SDS011;5069;49.306;8.636;2023-03-08T01:33:09;11.37;;;7.00;;
10059;SDS011;5069;49.306;8.636;2023-03-08T01:36:12;12.10;;;7.50;;
10059;SDS011;5069;49.306;8.636;2023-03-08T01:39:17;12.87;;;7.50;;
10059;SDS011;5069;49.306;8.636;2023-03-08T01:42:19;11.60;;;7.53;;
10059;SDS011;5069;49.306;8.636;2023-03-08T01:49:23;10.40;;;7.23;;
10059;SDS011;5069;49.306;8.636;2023-03-08T01:52:30;9.77;;;6.97;;
10059;SDS011;5069;49.306;8.636;2023-03-08T01:55:37;8.23;;;6.00;;
10059;SDS011;5069;49.306;8.636;2023-03-08T01:58:39;9.97;;;7.20;;
10059;SDS011;5069;49.306;8.636;2023-03-08T02:01:41;11.03;;;7.00;;
10059;SDS011;5069;49.306;8.636;2023-03-08T02:04:43;11.13;;;7.10;;
10059;SDS011;5069;49.306;8.636;2023-03-08T02:07:47;12.03;;;7.93;;
10059;SDS011;5069;49.306;8.636;2023-03-08T02:10:48;10.73;;;7.77;;
10059;SDS011;5069;49.306;8.636;2023-03-08T02:13:50;12.73;;;8.03;;
10059;SDS011;5069;49.306;8.636;2023-03-08T02:16:53;11.40;;;8.00;;
10059;SDS011;5069;49.306;8.636;2023-03-08T02:19:57;13.53;;;7.77;;
10059;SDS011;5069;49.306;8.636;2023-03-08T02:23:10;11.57;;;8.20;;
10059;SDS011;5069;49.306;8.636;2023-03-08T02:26:15;11.13;;;8.10;;
10059;SDS011;5069;49.306;8.636;2023-03-08T02:29:17;11.40;;;8.07;;
10059;SDS011;5069;49.306;8.636;2023-03-08T02:32:18;11.70;;;8.23;;
10059;SDS011;5069;49.306;8.636;2023-03-08T02:35:20;12.67;;;8.10;;
10059;SDS011;5069;49.306;8.636;2023-03-08T02:38:22;14.37;;;7.97;;
10059;SDS011;5069;49.306;8.636;2023-03-08T02:41:23;13.63;;;8.47;;
10059;SDS011;5069;49.306;8.636;2023-03-08T02:44:24;13.47;;;8.00;;
10059;SDS011;5069;49.306;8.636;2023-03-08T02:47:26;13.33;;;8.10;;
10059;SDS011;5069;49.306;8.636;2023-03-08T02:50:28;14.57;;;8.03;;
10059;SDS011;5069;49.306;8.636;2023-03-08T02:53:29;12.17;;;7.27;;
10059;SDS011;5069;49.306;8.636;2023-03-08T02:56:32;12.60;;;8.47;;
10059;SDS011;5069;49.306;8.636;2023-03-08T02:59:34;12.20;;;7.70;;
10059;SDS011;5069;49.306;8.636;2023-03-08T03:02:36;12.27;;;8.70;;
10059;SDS011;5069;49.306;8.636;2023-03-08T03:05:41;13.57;;;8.63;;
10059;SDS011;5069;49.306;8.636;2023-03-08T03:08:47;11.73;;;8.50;;
10059;SDS011;5069;49.306;8.636;2023-03-08T03:11:50;11.13;;;8.03;;
10059;SDS011;5069;49.306;8.636;2023-03-08T03:14:52;15.57;;;9.40;;
10059;SDS011;5069;49.306;8.636;2023-03-08T03:17:54;14.10;;;8.90;;
10059;SDS011;5069;49.306;8.636;2023-03-08T03:21:01;14.27;;;8.23;;
10059;SDS011;5069;49.306;8.636;2023-03-08T03:24:03;14.13;;;8.80;;
10059;SDS011;5069;49.306;8.636;2023-03-08T03:27:17;13.00;;;8.50;;
10059;SDS011;5069;49.306;8.636;2023-03-08T03:30:19;13.30;;;8.30;;
10059;SDS011;5069;49.306;8.636;2023-03-08T03:33:21;11.97;;;8.63;;
10059;SDS011;5069;49.306;8.636;2023-03-08T03:36:23;17.07;;;8.50;;
10059;SDS011;5069;49.306;8.636;2023-03-08T03:39:25;12.50;;;8.10;;
10059;SDS011;5069;49.306;8.636;2023-03-08T03:42:27;12.27;;;7.90;;
10059;SDS011;5069;49.306;8.636;2023-03-08T03:45:38;11.77;;;7.87;;
10059;SDS011;5069;49.306;8.636;2023-03-08T03:48:39;12.17;;;8.77;;
10059;SDS011;5069;49.306;8.636;2023-03-08T03:51:42;16.27;;;8.37;;
10059;SDS011;5069;49.306;8.636;2023-03-08T03:54:50;16.17;;;8.60;;
10059;SDS011;5069;49.306;8.636;2023-03-08T03:57:52;15.50;;;8.50;;
10059;SDS011;5069;49.306;8.636;2023-03-08T04:00:55;12.77;;;8.03;;
10059;SDS011;5069;49.306;8.636;2023-03-08T04:04:03;12.30;;;8.60;;
10059;SDS011;5069;49.306;8.636;2023-03-08T04:07:09;13.47;;;8.37;;
10059;SDS011;5069;49.306;8.636;2023-03-08T04:10:16;12.53;;;8.30;;
10059;SDS011;5069;49.306;8.636;2023-03-08T04:13:18;11.23;;;8.23;;
10059;SDS011;5069;49.306;8.636;2023-03-08T04:16:21;12.40;;;8.97;;
10059;SDS011;5069;49.306;8.636;2023-03-08T04:19:26;13.60;;;9.27;;
10059;SDS011;5069;49.306;8.636;2023-03-08T04:22:30;11.70;;;8.37;;
10059;SDS011;5069;49.306;8.636;2023-03-08T04:25:46;13.17;;;9.33;;
10059;SDS011;5069;49.306;8.636;2023-03-08T04:28:49;11.87;;;8.03;;
10059;SDS011;5069;49.306;8.636;2023-03-08T04:31:52;12.33;;;9.07;;
10059;SDS011;5069;49.306;8.636;2023-03-08T04:34:56;16.53;;;8.50;;
10059;SDS011;5069;49.306;8.636;2023-03-08T04:38:00;15.00;;;9.00;;
10059;SDS011;5069;49.306;8.636;2023-03-08T04:41:03;13.30;;;8.17;;
10059;SDS011;5069;49.306;8.636;2023-03-08T04:44:40;14.07;;;9.50;;
10059;SDS011;5069;49.306;8.636;2023-03-08T04:47:42;16.73;;;10.17;;
10059;SDS011;5069;49.306;8.636;2023-03-08T04:50:44;14.40;;;9.70;;
10059;SDS011;5069;49.306;8.636;2023-03-08T04:53:53;15.47;;;9.50;;
10059;SDS011;5069;49.306;8.636;2023-03-08T04:56:54;13.77;;;9.23;;
10059;SDS011;5069;49.306;8.636;2023-03-08T04:59:58;14.90;;;9.73;;
10059;SDS011;5069;49.306;8.636;2023-03-08T05:02:59;13.93;;;8.97;;
10059;SDS011;5069;49.306;8.636;2023-03-08T05:06:01;13.40;;;9.47;;
10059;SDS011;5069;49.306;8.636;2023-03-08T05:09:03;15.07;;;9.97;;
10059;SDS011;5069;49.306;8.636;2023-03-08T05:12:08;14.57;;;9.40;;
10059;SDS011;5069;49.306;8.636;2023-03-08T05:15:29;13.10;;;9.00;;
10059;SDS011;5069;49.306;8.636;2023-03-08T05:18:31;15.77;;;9.43;;
10059;SDS011;5069;49.306;8.636;2023-03-08T05:21:33;14.03;;;9.03;;
10059;SDS011;5069;49.306;8.636;2023-03-08T05:24:37;12.83;;;9.00;;
10059;SDS011;5069;49.306;8.636;2023-03-08T05:27:42;14.40;;;9.07;;
10059;SDS011;5069;49.306;8.636;2023-03-08T05:30:44;13.67;;;9.10;;
10059;SDS011;5069;49.306;8.636;2023-03-08T05:33:47;15.40;;;9.23;;
10059;SDS011;5069;49.306;8.636;2023-03-08T05:36:58;16.13;;;9.40;;
10059;SDS011;5069;49.306;8.636;2023-03-08T05:40:03;13.50;;;8.90;;
10059;SDS011;5069;49.306;8.636;2023-03-08T05:43:10;15.03;;;8.97;;
10059;SDS011;5069;49.306;8.636;2023-03-08T05:46:13;14.00;;;9.30;;
10059;SDS011;5069;49.306;8.636;2023-03-08T05:49:17;16.53;;;10.20;;
10059;SDS011;5069;49.306;8.636;2023-03-08T05:52:19;14.23;;;10.10;;
10059;SDS011;5069;49.306;8.636;2023-03-08T05:55:22;14.83;;;10.57;;
10059;SDS011;5069;49.306;8.636;2023-03-08T05:58:24;15.37;;;10.57;;
10059;SDS011;5069;49.306;8.636;2023-03-08T06:01:26;17.87;;;11.30;;
10059;SDS011;5069;49.306;8.636;2023-03-08T06:04:33;16.03;;;11.20;;
10059;SDS011;5069;49.306;8.636;2023-03-08T06:07:35;13.23;;;10.63;;
10059;SDS011;5069;49.306;8.636;2023-03-08T06:10:42;13.87;;;10.17;;
10059;SDS011;5069;49.306;8.636;2023-03-08T06:13:44;20.93;;;12.03;;
10059;SDS011;5069;49.306;8.636;2023-03-08T06:16:46;19.23;;;12.80;;
10059;SDS011;5069;49.306;8.636;2023-03-08T06:19:50;22.40;;;13.20;;
10059;SDS011;5069;49.306;8.636;2023-03-08T06:22:52;18.43;;;12.17;;
10059;SDS011;5069;49.306;8.636;2023-03-08T06:25:54;17.00;;;11.80;;
10059;SDS011;5069;49.306;8.636;2023-03-08T06:28:56;16.90;;;10.47;;
10059;SDS011;5069;49.306;8.636;2023-03-08T06:32:01;17.37;;;10.67;;
10059;SDS011;5069;49.306;8.636;2023-03-08T06:35:04;14.13;;;10.17;;
10059;SDS011;5069;49.306;8.636;2023-03-08T06:38:09;19.60;;;10.50;;
10059;SDS011;5069;49.306;8.636;2023-03-08T06:41:11;16.20;;;9.80;;
10059;SDS011;5069;49.306;8.636;2023-03-08T06:44:14;14.13;;;10.03;;
10059;SDS011;5069;49.306;8.636;2023-03-08T06:47:16;14.23;;;9.37;;
10059;SDS011;5069;49.306;8.636;2023-03-08T06:50:17;15.57;;;10.10;;
10059;SDS011;5069;49.306;8.636;2023-03-08T06:53:21;16.00;;;9.63;;
10059;SDS011;5069;49.306;8.636;2023-03-08T06:56:43;12.20;;;8.67;;
10059;SDS011;5069;49.306;8.636;2023-03-08T06:59:45;14.37;;;8.77;;
10059;SDS011;5069;49.306;8.636;2023-03-08T07:02:47;13.70;;;8.93;;
10059;SDS011;5069;49.306;8.636;2023-03-08T07:05:49;14.97;;;8.20;;
10059;SDS011;5069;49.306;8.636;2023-03-08T07:08:51;13.97;;;8.67;;
10059;SDS011;5069;49.306;8.636;2023-03-08T07:11:52;13.47;;;8.53;;
10059;SDS011;5069;49.306;8.636;2023-03-08T07:14:54;12.73;;;8.60;;
10059;SDS011;5069;49.306;8.636;2023-03-08T07:17:55;12.13;;;8.37;;
10059;SDS011;5069;49.306;8.636;2023-03-08T07:20:57;12.70;;;8.07;;
10059;SDS011;5069;49.306;8.636;2023-03-08T07:23:58;14.80;;;8.07;;
10059;SDS011;5069;49.306;8.636;2023-03-08T07:27:00;12.63;;;8.13;;
10059;SDS011;5069;49.306;8.636;2023-03-08T07:30:01;12.63;;;8.73;;
10059;SDS011;5069;49.306;8.636;2023-03-08T07:33:03;12.57;;;9.13;;
10059;SDS011;5069;49.306;8.636;2023-03-08T07:36:04;16.37;;;9.97;;
10059;SDS011;5069;49.306;8.636;2023-03-08T07:39:06;14.87;;;9.73;;
10059;SDS011;5069;49.306;8.636;2023-03-08T07:42:08;16.53;;;10.00;;
10059;SDS011;5069;49.306;8.636;2023-03-08T07:45:11;13.53;;;9.63;;
10059;SDS011;5069;49.306;8.636;2023-03-08T07:48:13;19.73;;;9.37;;
10059;SDS011;5069;49.306;8.636;2023-03-08T07:51:15;14.90;;;10.50;;
10059;SDS011;5069;49.306;8.636;2023-03-08T07:54:17;18.53;;;10.00;;
10059;SDS011;5069;49.306;8.636;2023-03-08T07:57:22;16.17;;;10.50;;
10059;SDS011;5069;49.306;8.636;2023-03-08T08:00:23;17.23;;;10.23;;
10059;SDS011;5069;49.306;8.636;2023-03-08T08:03:27;17.50;;;10.50;;
10059;SDS011;5069;49.306;8.636;2023-03-08T08:06:29;16.50;;;10.20;;
10059;SDS011;5069;49.306;8.636;2023-03-08T08:09:31;20.43;;;11.27;;
10059;SDS011;5069;49.306;8.636;2023-03-08T08:12:33;17.03;;;10.40;;
10059;SDS011;5069;49.306;8.636;2023-03-08T08:15:35;18.03;;;10.80;;
10059;SDS011;5069;49.306;8.636;2023-03-08T08:18:36;17.13;;;10.77;;
10059;SDS011;5069;49.306;8.636;2023-03-08T08:21:38;15.70;;;10.27;;
10059;SDS011;5069;49.306;8.636;2023-03-08T08:24:39;15.10;;;9.87;;
10059;SDS011;5069;49.306;8.636;2023-03-08T08:27:41;17.00;;;10.47;;
10059;SDS011;5069;49.306;8.636;2023-03-08T08:30:42;16.07;;;9.90;;
10059;SDS011;5069;49.306;8.636;2023-03-08T08:33:44;14.47;;;10.17;;
10059;SDS011;5069;49.306;8.636;2023-03-08T08:36:45;18.03;;;9.80;;
10059;SDS011;5069;49.306;8.636;2023-03-08T08:39:47;13.97;;;9.20;;
10059;SDS011;5069;49.306;8.636;2023-03-08T08:42:48;17.07;;;9.77;;
10059;SDS011;5069;49.306;8.636;2023-03-08T08:45:53;16.00;;;9.40;;
10059;SDS011;5069;49.306;8.636;2023-03-08T08:48:57;14.60;;;9.37;;
10059;SDS011;5069;49.306;8.636;2023-03-08T08:51:59;15.23;;;9.87;;
10059;SDS011;5069;49.306;8.636;2023-03-08T08:55:01;21.77;;;10.53;;
10059;SDS011;5069;49.306;8.636;2023-03-08T08:58:02;16.63;;;9.13;;
10059;SDS011;5069;49.306;8.636;2023-03-08T09:01:11;14.83;;;10.10;;
10059;SDS011;5069;49.306;8.636;2023-03-08T09:04:16;15.13;;;10.30;;
10059;SDS011;5069;49.306;8.636;2023-03-08T09:07:20;15.27;;;10.50;;
10059;SDS011;5069;49.306;8.636;2023-03-08T09:10:21;15.30;;;10.07;;
10059;SDS011;5069;49.306;8.636;2023-03-08T09:13:22;15.10;;;9.53;;
10059;SDS011;5069;49.306;8.636;2023-03-08T09:16:26;14.20;;;10.27;;
10059;SDS011;5069;49.306;8.636;2023-03-08T09:19:32;16.53;;;9.90;;
10059;SDS011;5069;49.306;8.636;2023-03-08T09:22:34;13.87;;;9.47;;
10059;SDS011;5069;49.306;8.636;2023-03-08T09:25:36;16.67;;;9.83;;
10059;SDS011;5069;49.306;8.636;2023-03-08T09:28:37;16.00;;;9.87;;
10059;SDS011;5069;49.306;8.636;2023-03-08T09:31:39;14.57;;;9.30;;
10059;SDS011;5069;49.306;8.636;2023-03-08T09:34:42;15.17;;;10.27;;
10059;SDS011;5069;49.306;8.636;2023-03-08T09:37:43;14.23;;;9.53;;
10059;SDS011;5069;49.306;8.636;2023-03-08T09:40:47;15.20;;;9.97;;
10059;SDS011;5069;49.306;8.636;2023-03-08T09:44:08;16.23;;;11.33;;
10059;SDS011;5069;49.306;8.636;2023-03-08T09:47:57;14.53;;;9.93;;
10059;SDS011;5069;49.306;8.636;2023-03-08T09:51:07;15.50;;;11.10;;
10059;SDS011;5069;49.306;8.636;2023-03-08T09:54:13;16.50;;;10.67;;
10059;SDS011;5069;49.306;8.636;2023-03-08T09:57:23;19.00;;;11.33;;
10059;SDS011;5069;49.306;8.636;2023-03-08T10:00:33;15.23;;;10.63;;
10059;SDS011;5069;49.306;8.636;2023-03-08T10:03:47;14.50;;;9.93;;
10059;SDS011;5069;49.306;8.636;2023-03-08T10:06:55;16.30;;;10.50;;
10059;SDS011;5069;49.306;8.636;2023-03-08T10:10:21;17.37;;;10.73;;
10059;SDS011;5069;49.306;8.636;2023-03-08T10:13:50;17.17;;;10.50;;
10059;SDS011;5069;49.306;8.636;2023-03-08T10:16:58;14.77;;;9.70;;
10059;SDS011;5069;49.306;8.636;2023-03-08T10:20:25;14.27;;;9.90;;
10059;SDS011;5069;49.306;8.636;2023-03-08T10:23:28;15.20;;;9.63;;
10059;SDS011;5069;49.306;8.636;2023-03-08T10:26:32;16.33;;;10.40;;
10059;SDS011;5069;49.306;8.636;2023-03-08T10:29:34;17.40;;;9.80;;
10059;SDS011;5069;49.306;8.636;2023-03-08T10:32:41;16.87;;;10.30;;
10059;SDS011;5069;49.306;8.636;2023-03-08T10:39:05;17.40;;;9.93;;
10059;SDS011;5069;49.306;8.636;2023-03-08T10:42:13;14.37;;;9.90;;
10059;SDS011;5069;49.306;8.636;2023-03-08T10:45:16;14.63;;;10.17;;
10059;SDS011;5069;49.306;8.636;2023-03-08T10:48:22;17.43;;;9.13;;
10059;SDS011;5069;49.306;8.636;2023-03-08T10:51:25;14.50;;;9.20;;
10059;SDS011;5069;49.306;8.636;2023-03-08T10:54:28;11.63;;;9.33;;
10059;SDS011;5069;49.306;8.636;2023-03-08T10:57:30;12.63;;;9.20;;
10059;SDS011;5069;49.306;8.636;2023-03-08T11:00:33;14.13;;;8.20;;
10059;SDS011;5069;49.306;8.636;2023-03-08T11:03:37;11.27;;;7.57;;
10059;SDS011;5069;49.306;8.636;2023-03-08T11:06:38;11.70;;;8.00;;
10059;SDS011;5069;49.306;8.636;2023-03-08T11:09:40;11.80;;;7.97;;
10059;SDS011;5069;49.306;8.636;2023-03-08T11:12:42;10.03;;;7.77;;
10059;SDS011;5069;49.306;8.636;2023-03-08T11:15:46;11.97;;;8.70;;
10059;SDS011;5069;49.306;8.636;2023-03-08T11:25:44;12.90;;;8.67;;
10059;SDS011;5069;49.306;8.636;2023-03-08T11:29:05;13.33;;;8.00;;
10059;SDS011;5069;49.306;8.636;2023-03-08T11:42:30;13.27;;;8.53;;
10059;SDS011;5069;49.306;8.636;2023-03-08T11:45:56;13.23;;;8.50;;
10059;SDS011;5069;49.306;8.636;2023-03-08T11:55:32;12.27;;;8.27;;
10059;SDS011;5069;49.306;8.636;2023-03-08T11:58:44;15.33;;;8.23;;
10059;SDS011;5069;49.306;8.636;2023-03-08T12:08:33;10.93;;;7.97;;
10059;SDS011;5069;49.306;8.636;2023-03-08T12:11:43;14.77;;;8.73;;
10059;SDS011;5069;49.306;8.636;2023-03-08T12:14:59;11.93;;;8.63;;
10059;SDS011;5069;49.306;8.636;2023-03-08T12:18:06;9.73;;;7.90;;
10059;SDS011;5069;49.306;8.636;2023-03-08T12:25:12;12.90;;;8.87;;
10059;SDS011;5069;49.306;8.636;2023-03-08T12:28:24;12.93;;;8.67;;
10059;SDS011;5069;49.306;8.636;2023-03-08T12:31:33;17.23;;;10.77;;
10059;SDS011;5069;49.306;8.636;2023-03-08T12:37:53;14.67;;;8.73;;
10059;SDS011;5069;49.306;8.636;2023-03-08T12:41:18;11.33;;;8.37;;
10059;SDS011;5069;49.306;8.636;2023-03-08T12:44:29;13.93;;;9.10;;
10059;SDS011;5069;49.306;8.636;2023-03-08T12:47:31;11.47;;;8.47;;
10059;SDS011;5069;49.306;8.636;2023-03-08T12:50:35;11.33;;;8.70;;
10059;SDS011;5069;49.306;8.636;2023-03-08T12:53:43;10.60;;;7.83;;
10059;SDS011;5069;49.306;8.636;2023-03-08T12:56:56;11.77;;;8.00;;
10059;SDS011;5069;49.306;8.636;2023-03-08T12:59:59;9.83;;;7.70;;
10059;SDS011;5069;49.306;8.636;2023-03-08T13:09:56;9.77;;;7.07;;
10059;SDS011;5069;49.306;8.636;2023-03-08T13:16:27;10.00;;;7.73;;
10059;SDS011;5069;49.306;8.636;2023-03-08T13:19:29;10.03;;;8.00;;
10059;SDS011;5069;49.306;8.636;2023-03-08T13:22:44;9.33;;;7.50;;
10059;SDS011;5069;49.306;8.636;2023-03-08T13:29:11;12.27;;;7.50;;
10059;SDS011;5069;49.306;8.636;2023-03-08T13:32:17;9.87;;;7.37;;
10059;SDS011;5069;49.306;8.636;2023-03-08T13:35:20;9.77;;;6.40;;
10059;SDS011;5069;49.306;8.636;2023-03-08T13:38:22;9.50;;;6.83;;
10059;SDS011;5069;49.306;8.636;2023-03-08T13:41:42;8.17;;;7.00;;
10059;SDS011;5069;49.306;8.636;2023-03-08T13:44:47;12.60;;;8.33;;
10059;SDS011;5069;49.306;8.636;2023-03-08T13:47:49;12.50;;;9.10;;
10059;SDS011;5069;49.306;8.636;2023-03-08T13:50:51;16.60;;;11.47;;
10059;SDS011;5069;49.306;8.636;2023-03-08T13:53:53;15.87;;;11.63;;
10059;SDS011;5069;49.306;8.636;2023-03-08T13:56:57;18.17;;;12.20;;
10059;SDS011;5069;49.306;8.636;2023-03-08T14:00:00;18.53;;;13.07;;
10059;SDS011;5069;49.306;8.636;2023-03-08T14:03:20;17.47;;;13.23;;
10059;SDS011;5069;49.306;8.636;2023-03-08T14:09:23;22.20;;;15.23;;
10059;SDS011;5069;49.306;8.636;2023-03-08T14:12:27;25.27;;;15.83;;
10059;SDS011;5069;49.306;8.636;2023-03-08T14:15:33;24.10;;;14.50;;
10059;SDS011;5069;49.306;8.636;2023-03-08T14:18:39;19.77;;;14.33;;
10059;SDS011;5069;49.306;8.636;2023-03-08T14:21:56;18.43;;;13.80;;
10059;SDS011;5069;49.306;8.636;2023-03-08T14:25:00;19.37;;;13.23;;
10059;SDS011;5069;49.306;8.636;2023-03-08T14:28:02;20.47;;;11.93;;
10059;SDS011;5069;49.306;8.636;2023-03-08T14:31:21;21.27;;;15.10;;
10059;SDS011;5069;49.306;8.636;2023-03-08T14:34:31;30.60;;;18.93;;
10059;SDS011;5069;49.306;8.636;2023-03-08T14:37:36;23.20;;;16.33;;
10059;SDS011;5069;49.306;8.636;2023-03-08T14:40:44;22.27;;;15.63;;
10059;SDS011;5069;49.306;8.636;2023-03-08T14:43:49;26.50;;;17.70;;
10059;SDS011;5069;49.306;8.636;2023-03-08T14:46:51;22.10;;;15.37;;
10059;SDS011;5069;49.306;8.636;2023-03-08T14:50:03;17.27;;;14.27;;
10059;SDS011;5069;49.306;8.636;2023-03-08T14:53:25;21.93;;;16.20;;
10059;SDS011;5069;49.306;8.636;2023-03-08T14:56:33;19.90;;;15.77;;
10059;SDS011;5069;49.306;8.636;2023-03-08T14:59:38;19.10;;;14.37;;
10059;SDS011;5069;49.306;8.636;2023-03-08T15:02:40;34.27;;;24.03;;
10059;SDS011;5069;49.306;8.636;2023-03-08T15:05:43;27.00;;;19.67;;
10059;SDS011;5069;49.306;8.636;2023-03-08T15:08:46;22.40;;;15.97;;
10059;SDS011;5069;49.306;8.636;2023-03-08T15:11:50;18.13;;;14.97;;
10059;SDS011;5069;49.306;8.636;2023-03-08T15:14:52;19.70;;;15.53;;
10059;SDS011;5069;49.306;8.636;2023-03-08T15:17:58;19.33;;;14.67;;
10059;SDS011;5069;49.306;8.636;2023-03-08T15:20:59;16.57;;;13.40;;
10059;SDS011;5069;49.306;8.636;2023-03-08T15:24:01;18.30;;;15.13;;
10059;SDS011;5069;49.306;8.636;2023-03-08T15:27:03;20.70;;;14.53;;
10059;SDS011;5069;49.306;8.636;2023-03-08T15:30:04;19.57;;;14.33;;
10059;SDS011;5069;49.306;8.636;2023-03-08T15:33:06;24.40;;;17.90;;
10059;SDS011;5069;49.306;8.636;2023-03-08T15:36:09;9.77;;;6.70;;
10059;SDS011;5069;49.306;8.636;2023-03-08T15:39:14;8.17;;;4.27;;
10059;SDS011;5069;49.306;8.636;2023-03-08T15:42:16;7.43;;;3.53;;
10059;SDS011;5069;49.306;8.636;2023-03-08T15:45:17;5.43;;;2.00;;
10059;SDS011;5069;49.306;8.636;2023-03-08T15:48:19;3.00;;;1.93;;
10059;SDS011;5069;49.306;8.636;2023-03-08T15:51:21;2.83;;;1.87;;
10059;SDS011;5069;49.306;8.636;2023-03-08T15:54:25;4.63;;;1.43;;
10059;SDS011;5069;49.306;8.636;2023-03-08T15:57:27;1.43;;;1.33;;
10059;SDS011;5069;49.306;8.636;2023-03-08T16:00:29;2.27;;;1.30;;
10059;SDS011;5069;49.306;8.636;2023-03-08T16:03:30;4.53;;;1.73;;
10059;SDS011;5069;49.306;8.636;2023-03-08T16:06:32;2.20;;;1.37;;
10059;SDS011;5069;49.306;8.636;2023-03-08T16:09:33;5.13;;;1.53;;
10059;SDS011;5069;49.306;8.636;2023-03-08T16:12:35;4.67;;;1.57;;
10059;SDS011;5069;49.306;8.636;2023-03-08T16:15:39;2.07;;;1.30;;
10059;SDS011;5069;49.306;8.636;2023-03-08T16:18:41;1.20;;;1.10;;
10059;SDS011;5069;49.306;8.636;2023-03-08T16:21:44;3.90;;;1.20;;
10059;SDS011;5069;49.306;8.636;2023-03-08T16:24:46;2.17;;;1.30;;
10059;SDS011;5069;49.306;8.636;2023-03-08T16:27:47;2.73;;;1.13;;
10059;SDS011;5069;49.306;8.636;2023-03-08T16:30:49;3.27;;;2.23;;
10059;SDS011;5069;49.306;8.636;2023-03-08T16:33:50;3.50;;;1.90;;
10059;SDS011;5069;49.306;8.636;2023-03-08T16:36:52;3.50;;;1.87;;
10059;SDS011;5069;49.306;8.636;2023-03-08T16:39:53;4.03;;;1.83;;
10059;SDS011;5069;49.306;8.636;2023-03-08T16:42:57;2.77;;;2.27;;
10059;SDS011;5069;49.306;8.636;2023-03-08T16:45:59;2.90;;;2.10;;
10059;SDS011;5069;49.306;8.636;2023-03-08T16:49:01;4.17;;;2.70;;
10059;SDS011;5069;49.306;8.636;2023-03-08T16:52:03;3.90;;;2.20;;
10059;SDS011;5069;49.306;8.636;2023-03-08T16:55:05;4.57;;;2.60;;
10059;SDS011;5069;49.306;8.636;2023-03-08T16:58:07;2.90;;;2.57;;
10059;SDS011;5069;49.306;8.636;2023-03-08T17:01:10;4.33;;;2.90;;
10059;SDS011;5069;49.306;8.636;2023-03-08T17:04:12;9.63;;;7.17;;
10059;SDS011;5069;49.306;8.636;2023-03-08T17:07:14;7.57;;;4.60;;
10059;SDS011;5069;49.306;8.636;2023-03-08T17:10:17;8.47;;;4.93;;
10059;SDS011;5069;49.306;8.636;2023-03-08T17:13:18;7.53;;;4.10;;
10059;SDS011;5069;49.306;8.636;2023-03-08T17:16:21;4.63;;;2.57;;
10059;SDS011;5069;49.306;8.636;2023-03-08T17:19:24;3.40;;;2.10;;
10059;SDS011;5069;49.306;8.636;2023-03-08T17:22:25;5.57;;;2.40;;
10059;SDS011;5069;49.306;8.636;2023-03-08T17:25:27;4.37;;;2.70;;
10059;SDS011;5069;49.306;8.636;2023-03-08T17:28:28;4.83;;;2.80;;
10059;SDS011;5069;49.306;8.636;2023-03-08T17:31:30;4.43;;;3.00;;
10059;SDS011;5069;49.306;8.636;2023-03-08T17:34:31;2.87;;;2.53;;
10059;SDS011;5069;49.306;8.636;2023-03-08T17:37:33;5.50;;;3.33;;
10059;SDS011;5069;49.306;8.636;2023-03-08T17:40:41;4.67;;;2.70;;
10059;SDS011;5069;49.306;8.636;2023-03-08T17:43:42;2.63;;;1.90;;
10059;SDS011;5069;49.306;8.636;2023-03-08T17:46:44;5.13;;;1.80;;
10059;SDS011;5069;49.306;8.636;2023-03-08T17:49:45;3.03;;;2.07;;
10059;SDS011;5069;49.306;8.636;2023-03-08T17:52:47;4.63;;;2.30;;
10059;SDS011;5069;49.306;8.636;2023-03-08T17:55:49;5.97;;;3.43;;
10059;SDS011;5069;49.306;8.636;2023-03-08T17:58:50;4.97;;;3.33;;
10059;SDS011;5069;49.306;8.636;2023-03-08T18:01:52;6.93;;;4.00;;
10059;SDS011;5069;49.306;8.636;2023-03-08T18:04:54;3.17;;;2.80;;
10059;SDS011;5069;49.306;8.636;2023-03-08T18:07:56;7.27;;;5.20;;
10059;SDS011;5069;49.306;8.636;2023-03-08T18:10:58;13.43;;;9.83;;
10059;SDS011;5069;49.306;8.636;2023-03-08T18:13:59;17.50;;;10.93;;
10059;SDS011;5069;49.306;8.636;2023-03-08T18:17:01;16.17;;;11.77;;
10059;SDS011;5069;49.306;8.636;2023-03-08T18:20:02;16.87;;;11.20;;
10059;SDS011;5069;49.306;8.636;2023-03-08T18:23:05;8.93;;;5.80;;
10059;SDS011;5069;49.306;8.636;2023-03-08T18:26:07;4.83;;;3.70;;
10059;SDS011;5069;49.306;8.636;2023-03-08T18:29:10;6.53;;;4.07;;
10059;SDS011;5069;49.306;8.636;2023-03-08T18:32:12;6.47;;;4.73;;
10059;SDS011;5069;49.306;8.636;2023-03-08T18:35:14;9.07;;;5.83;;
10059;SDS011;5069;49.306;8.636;2023-03-08T18:38:15;8.73;;;7.53;;
10059;SDS011;5069;49.306;8.636;2023-03-08T18:41:18;8.53;;;6.93;;
10059;SDS011;5069;49.306;8.636;2023-03-08T18:44:25;8.87;;;6.80;;
10059;SDS011;5069;49.306;8.636;2023-03-08T18:47:27;10.20;;;7.67;;
10059;SDS011;5069;49.306;8.636;2023-03-08T18:50:28;7.70;;;6.43;;
10059;SDS011;5069;49.306;8.636;2023-03-08T18:53:30;7.23;;;4.93;;
10059;SDS011;5069;49.306;8.636;2023-03-08T18:56:31;5.80;;;4.73;;
10059;SDS011;5069;49.306;8.636;2023-03-08T18:59:33;6.33;;;5.70;;
10059;SDS011;5069;49.306;8.636;2023-03-08T19:02:35;7.40;;;6.40;;
10059;SDS011;5069;49.306;8.636;2023-03-08T19:05:36;5.97;;;4.40;;
10059;SDS011;5069;49.306;8.636;2023-03-08T19:08:38;6.10;;;5.10;;
10059;SDS011;5069;49.306;8.636;2023-03-08T19:11:40;4.33;;;3.87;;
10059;SDS011;5069;49.306;8.636;2023-03-08T19:14:42;5.50;;;4.93;;
10059;SDS011;5069;49.306;8.636;2023-03-08T19:17:45;6.30;;;5.63;;
10059;SDS011;5069;49.306;8.636;2023-03-08T19:20:46;7.30;;;5.80;;
10059;SDS011;5069;49.306;8.636;2023-03-08T19:23:48;6.73;;;5.50;;
10059;SDS011;5069;49.306;8.636;2023-03-08T19:26:50;7.27;;;5.70;;
10059;SDS011;5069;49.306;8.636;2023-03-08T19:29:53;9.77;;;6.23;;
10059;SDS011;5069;49.306;8.636;2023-03-08T19:32:55;5.70;;;5.00;;